createdAt,value
2018-10-18T00:01:34.895Z,39.00
2018-10-18T00:04:05.710Z,37.57
2018-10-18T00:06:34.854Z,37.07
2018-10-18T00:09:05.122Z,34.23
2018-10-18T00:11:34.239Z,35.37
2018-10-18T00:14:03.402Z,35.70
2018-10-18T00:16:32.540Z,32.00
2018-10-18T00:19:01.766Z,35.87
2018-10-18T00:21:30.867Z,35.10
2018-10-18T00:24:00.031Z,32.90
2018-10-18T00:26:29.948Z,38.80
2018-10-18T00:28:59.068Z,40.83
2018-10-18T00:31:28.866Z,37.50
2018-10-18T00:33:58.122Z,31.80
2018-10-18T00:36:27.228Z,36.43
2018-10-18T00:38:56.768Z,33.17
2018-10-18T00:41:25.909Z,35.97
2018-10-18T00:43:55.116Z,35.47
2018-10-18T00:46:24.514Z,39.13
2018-10-18T00:48:53.647Z,32.20
2018-10-18T00:51:23.238Z,35.37
2018-10-18T00:53:52.605Z,35.13
2018-10-18T00:56:21.698Z,43.90
2018-10-18T00:58:50.802Z,37.33
2018-10-18T01:01:19.919Z,41.83
2018-10-18T01:03:50.014Z,40.57
2018-10-18T01:06:19.354Z,41.83
2018-10-18T01:08:48.656Z,37.73
2018-10-18T01:11:17.781Z,38.43
2018-10-18T01:13:46.939Z,38.67
2018-10-18T01:16:16.329Z,41.83
2018-10-18T01:18:45.452Z,36.17
2018-10-18T01:21:14.550Z,36.60
2018-10-18T01:23:43.703Z,39.80
2018-10-18T01:26:12.891Z,38.53
2018-10-18T01:28:42.551Z,42.70
2018-10-18T01:31:11.742Z,44.87
2018-10-18T01:33:40.847Z,39.47
2018-10-18T01:36:10.037Z,65.17
2018-10-18T01:38:39.418Z,35.23
2018-10-18T01:41:08.660Z,40.00
2018-10-18T01:43:37.821Z,39.70
2018-10-18T01:46:07.406Z,37.83
2018-10-18T01:48:37.050Z,38.23
2018-10-18T01:51:06.575Z,44.90
2018-10-18T01:53:36.086Z,35.60
2018-10-18T01:56:05.606Z,44.30
2018-10-18T01:58:34.750Z,38.73
2018-10-18T02:01:04.098Z,43.27
2018-10-18T02:03:33.187Z,40.87
2018-10-18T02:06:02.378Z,37.80
2018-10-18T02:08:31.419Z,37.30
2018-10-18T02:11:00.512Z,50.60
2018-10-18T02:13:29.655Z,44.83
2018-10-18T02:15:58.751Z,45.37
2018-10-18T02:18:29.395Z,45.87
2018-10-18T02:20:58.647Z,38.83
2018-10-18T02:23:27.787Z,36.63
2018-10-18T02:25:56.954Z,38.87
2018-10-18T02:28:26.109Z,45.17
2018-10-18T02:30:55.270Z,37.57
2018-10-18T02:33:24.550Z,37.43
2018-10-18T02:35:53.504Z,38.60
2018-10-18T02:38:23.922Z,44.73
2018-10-18T02:40:53.054Z,38.90
2018-10-18T02:43:22.377Z,40.67
2018-10-18T02:45:51.967Z,41.30
2018-10-18T02:48:21.112Z,40.30
2018-10-18T02:50:50.262Z,39.57
2018-10-18T02:53:19.443Z,47.40
2018-10-18T02:55:49.174Z,48.30
2018-10-18T02:58:19.421Z,43.97
2018-10-18T03:00:49.057Z,39.37
2018-10-18T03:03:17.986Z,37.40
2018-10-18T03:05:47.158Z,36.67
2018-10-18T03:08:16.327Z,40.40
2018-10-18T03:10:45.489Z,38.83
2018-10-18T03:13:14.662Z,41.27
2018-10-18T03:15:43.854Z,44.37
2018-10-18T03:18:13.144Z,50.13
2018-10-18T03:20:42.547Z,36.10
2018-10-18T03:23:11.705Z,40.87
2018-10-18T03:25:40.814Z,41.70
2018-10-18T03:28:09.954Z,36.10
2018-10-18T03:30:39.821Z,38.13
2018-10-18T03:33:08.953Z,37.30
2018-10-18T03:35:38.424Z,40.33
2018-10-18T03:38:07.637Z,40.03
2018-10-18T03:40:37.002Z,45.87
2018-10-18T03:43:06.370Z,45.13
2018-10-18T03:45:35.551Z,45.73
2018-10-18T03:48:04.834Z,43.47
2018-10-18T03:50:33.939Z,42.03
2018-10-18T03:53:03.360Z,42.77
2018-10-18T03:55:32.535Z,37.70
2018-10-18T03:58:01.869Z,42.03
2018-10-18T04:00:30.997Z,47.73
2018-10-18T04:03:00.445Z,50.03
2018-10-18T04:05:29.757Z,42.10
2018-10-18T04:07:58.941Z,37.27
2018-10-18T04:10:28.120Z,42.07
2018-10-18T04:12:57.323Z,38.63
2018-10-18T04:15:26.898Z,40.30
2018-10-18T04:17:56.602Z,46.33
2018-10-18T04:20:25.741Z,49.53
2018-10-18T04:22:54.893Z,45.23
2018-10-18T04:25:24.108Z,51.50
2018-10-18T04:27:53.205Z,51.10
2018-10-18T04:30:22.866Z,51.13
2018-10-18T04:32:52.034Z,56.63
2018-10-18T04:35:23.245Z,51.10
2018-10-18T04:37:52.593Z,52.57
2018-10-18T04:40:21.782Z,53.23
2018-10-18T04:42:50.942Z,46.27
2018-10-18T04:45:20.082Z,51.70
2018-10-18T04:47:49.282Z,50.50
2018-10-18T04:50:18.397Z,47.20
2018-10-18T04:52:47.586Z,62.13
2018-10-18T04:55:16.814Z,53.07
2018-10-18T04:57:45.870Z,47.57
2018-10-18T05:00:15.486Z,45.07
2018-10-18T05:02:44.860Z,55.67
2018-10-18T05:05:30.955Z,63.33
2018-10-18T05:08:00.830Z,50.40
2018-10-18T05:10:30.609Z,57.80
2018-10-18T05:12:59.936Z,56.37
2018-10-18T05:15:29.991Z,58.37
2018-10-18T05:17:59.142Z,48.90
2018-10-18T05:20:28.294Z,58.40
2018-10-18T05:22:57.807Z,51.53
2018-10-18T05:25:27.034Z,59.97
2018-10-18T05:27:56.057Z,58.13
2018-10-18T05:30:26.248Z,53.63
2018-10-18T05:32:55.807Z,58.43
2018-10-18T05:35:24.953Z,63.87
2018-10-18T05:37:54.138Z,59.30
2018-10-18T05:40:23.261Z,56.97
2018-10-18T05:42:52.538Z,64.30
2018-10-18T05:45:21.662Z,62.73
2018-10-18T05:47:51.243Z,56.80
2018-10-18T05:50:21.080Z,44.17
2018-10-18T05:52:50.252Z,52.87
2018-10-18T05:55:19.631Z,55.07
2018-10-18T05:57:48.809Z,50.77
2018-10-18T06:00:18.924Z,45.80
2018-10-18T06:02:48.221Z,37.20
2018-10-18T06:05:17.992Z,42.77
2018-10-18T06:07:47.242Z,35.90
2018-10-18T06:10:33.461Z,37.53
2018-10-18T06:13:02.625Z,39.83
2018-10-18T06:15:31.686Z,41.50
2018-10-18T06:18:01.654Z,49.63
2018-10-18T06:20:30.770Z,39.97
2018-10-18T06:22:59.969Z,47.07
2018-10-18T06:25:29.030Z,34.50
2018-10-18T06:27:58.192Z,32.83
2018-10-18T06:30:27.332Z,36.33
2018-10-18T06:32:57.043Z,36.70
2018-10-18T06:35:27.489Z,32.30
2018-10-18T06:37:56.637Z,32.90
2018-10-18T06:40:25.793Z,37.03
2018-10-18T06:42:54.964Z,31.77
2018-10-18T06:45:24.129Z,35.03
2018-10-18T06:47:53.573Z,43.03
2018-10-18T06:50:22.442Z,35.67
2018-10-18T06:52:51.562Z,38.43
2018-10-18T06:55:21.530Z,32.03
2018-10-18T06:57:50.709Z,29.57
2018-10-18T07:00:22.487Z,42.10
2018-10-18T07:02:52.279Z,39.40
2018-10-18T07:05:21.637Z,39.07
2018-10-18T07:07:50.954Z,32.93
2018-10-18T07:10:20.086Z,29.83
2018-10-18T07:12:49.285Z,35.53
2018-10-18T07:15:19.174Z,28.63
2018-10-18T07:17:49.036Z,25.30
2018-10-18T07:20:18.062Z,28.47
2018-10-18T07:22:47.197Z,29.63
2018-10-18T07:25:16.697Z,25.97
2018-10-18T07:27:45.846Z,28.43
2018-10-18T07:30:15.651Z,35.10
2018-10-18T07:32:45.094Z,30.17
2018-10-18T07:35:14.924Z,23.97
2018-10-18T07:37:44.100Z,24.20
2018-10-18T07:40:15.569Z,30.73
2018-10-18T07:42:44.870Z,33.87
2018-10-18T07:45:15.357Z,38.47
2018-10-18T07:47:45.185Z,30.07
2018-10-18T07:50:14.391Z,33.10
2018-10-18T07:52:43.530Z,32.60
2018-10-18T07:55:12.745Z,30.67
2018-10-18T07:57:41.966Z,28.13
2018-10-18T08:00:14.545Z,25.77
2018-10-18T08:02:44.786Z,24.73
2018-10-18T08:05:14.714Z,31.67
2018-10-18T08:07:44.565Z,28.83
2018-10-18T08:10:15.456Z,29.83
2018-10-18T08:12:44.638Z,29.30
2018-10-18T08:15:15.011Z,26.20
2018-10-18T08:17:44.753Z,36.30
2018-10-18T08:20:14.478Z,29.70
2018-10-18T08:22:44.950Z,31.20
2018-10-18T08:25:13.739Z,27.23
2018-10-18T08:27:42.947Z,26.40
2018-10-18T08:30:13.422Z,28.50
2018-10-18T08:32:42.594Z,27.60
2018-10-18T08:35:12.800Z,29.27
2018-10-18T08:37:42.379Z,30.50
2018-10-18T08:40:11.470Z,34.47
2018-10-18T08:48:40.355Z,36.93
2018-10-18T08:51:09.951Z,39.57
2018-10-18T08:53:39.367Z,39.70
2018-10-18T08:56:09.010Z,39.80
2018-10-18T08:58:38.250Z,30.53
2018-10-18T09:01:07.541Z,41.80
2018-10-18T09:03:37.484Z,31.10
2018-10-18T09:06:06.729Z,31.40
2018-10-18T09:08:36.845Z,33.60
2018-10-18T09:11:06.593Z,33.10
2018-10-18T09:13:35.751Z,31.73
2018-10-18T09:16:06.020Z,40.23
2018-10-18T09:18:35.149Z,35.33
2018-10-18T09:21:04.266Z,30.67
2018-10-18T09:23:33.416Z,44.43
2018-10-18T09:26:02.614Z,42.23
2018-10-18T09:28:32.258Z,33.70
2018-10-18T09:31:01.873Z,39.63
2018-10-18T09:33:31.093Z,33.43
2018-10-18T09:36:00.639Z,40.23
2018-10-18T09:38:29.919Z,46.13
2018-10-18T09:40:59.470Z,41.37
2018-10-18T09:43:29.210Z,43.10
2018-10-18T09:45:58.600Z,41.70
2018-10-18T09:48:28.211Z,46.20
2018-10-18T09:50:57.722Z,37.90
2018-10-18T09:53:26.897Z,39.00
2018-10-18T09:55:56.431Z,41.23
2018-10-18T09:58:25.546Z,40.83
2018-10-18T10:01:01.357Z,42.90
2018-10-18T10:03:37.203Z,40.60
2018-10-18T10:06:07.050Z,39.07
2018-10-18T10:08:36.658Z,36.80
2018-10-18T10:11:05.862Z,45.23
2018-10-18T10:13:35.263Z,50.93
2018-10-18T10:16:04.506Z,40.03
2018-10-18T10:18:33.854Z,35.53
2018-10-18T10:21:05.102Z,38.60
2018-10-18T10:23:34.206Z,43.00
2018-10-18T10:26:03.662Z,39.47
2018-10-18T10:28:32.850Z,41.67
2018-10-18T10:31:02.089Z,44.33
2018-10-18T10:33:46.319Z,39.53
2018-10-18T10:36:15.452Z,41.10
2018-10-18T10:38:44.580Z,38.43
2018-10-18T10:41:13.765Z,41.70
2018-10-18T10:43:42.882Z,40.67
2018-10-18T10:46:12.052Z,43.40
2018-10-18T10:48:41.573Z,42.63
2018-10-18T10:51:10.919Z,48.40
2018-10-18T10:53:40.008Z,48.77
2018-10-18T10:56:09.154Z,42.40
2018-10-18T10:58:38.254Z,45.63
2018-10-18T11:01:10.378Z,51.57
2018-10-18T11:03:40.925Z,41.00
2018-10-18T11:06:10.671Z,40.77
2018-10-18T11:08:39.758Z,47.67
2018-10-18T11:11:09.969Z,50.10
2018-10-18T11:13:39.071Z,38.00
2018-10-18T11:16:08.651Z,44.30
2018-10-18T11:18:38.857Z,48.00
2018-10-18T11:21:09.415Z,55.70
2018-10-18T11:23:38.494Z,51.33
2018-10-18T11:26:08.870Z,69.83
2018-10-18T11:28:38.007Z,49.30
2018-10-18T11:31:07.127Z,60.60
2018-10-18T11:33:36.241Z,54.13
2018-10-18T11:36:05.412Z,58.20
2018-10-18T11:38:34.527Z,55.23
2018-10-18T11:41:04.376Z,47.87
2018-10-18T11:43:34.264Z,52.17
2018-10-18T11:46:03.494Z,46.20
2018-10-18T11:48:32.687Z,48.97
2018-10-18T11:51:01.832Z,59.20
2018-10-18T11:53:31.423Z,46.60
2018-10-18T11:56:00.575Z,44.57
2018-10-18T11:58:29.746Z,52.60
2018-10-18T12:00:59.530Z,31.10
2018-10-18T12:03:28.635Z,41.30
2018-10-18T12:05:57.810Z,34.97
2018-10-18T12:08:26.934Z,36.53
2018-10-18T12:10:56.084Z,33.90
2018-10-18T12:13:25.608Z,48.00
2018-10-18T12:15:54.753Z,31.37
2018-10-18T12:18:23.950Z,33.97
2018-10-18T12:20:53.177Z,33.07
2018-10-18T12:23:22.331Z,38.43
2018-10-18T12:25:51.678Z,38.50
2018-10-18T12:28:20.366Z,30.50
2018-10-18T12:30:49.545Z,39.73
2018-10-18T12:33:18.642Z,34.67
2018-10-18T12:35:47.756Z,30.20
2018-10-18T12:38:17.019Z,34.53
2018-10-18T12:40:46.092Z,32.27
2018-10-18T12:43:15.183Z,38.90
2018-10-18T12:45:44.335Z,35.43
2018-10-18T12:48:13.558Z,32.90
2018-10-18T12:50:43.318Z,36.27
2018-10-18T12:53:12.488Z,32.03
2018-10-18T12:55:41.594Z,36.70
2018-10-18T12:58:10.782Z,29.03
2018-10-18T13:00:39.915Z,36.80
2018-10-18T13:03:10.460Z,30.47
2018-10-18T13:05:39.570Z,35.70
2018-10-18T13:08:08.723Z,32.80
2018-10-18T13:10:37.827Z,28.27
2018-10-18T13:13:06.961Z,34.53
2018-10-18T13:15:36.134Z,28.97
2018-10-18T13:18:06.463Z,31.80
2018-10-18T13:20:35.534Z,33.40
2018-10-18T13:23:04.716Z,27.87
2018-10-18T13:25:34.161Z,31.07
2018-10-18T13:28:03.927Z,30.23
2018-10-18T13:30:33.258Z,26.30
2018-10-18T13:33:02.411Z,34.80
2018-10-18T13:35:31.587Z,31.83
2018-10-18T13:38:01.041Z,28.60
2018-10-18T13:40:30.162Z,32.83
2018-10-18T13:42:59.354Z,35.77
2018-10-18T13:45:28.474Z,29.50
2018-10-18T13:47:58.208Z,30.27
2018-10-18T13:50:28.274Z,30.70
2018-10-18T13:52:59.150Z,29.80
2018-10-18T13:55:28.314Z,40.93
2018-10-18T13:57:57.914Z,32.90
2018-10-18T14:00:28.626Z,36.10
2018-10-18T14:02:57.794Z,33.93
2018-10-18T14:05:28.302Z,29.93
2018-10-18T14:07:57.903Z,29.60
2018-10-18T14:10:33.045Z,35.10
2018-10-18T14:13:02.350Z,33.03
2018-10-18T14:15:31.661Z,27.93
2018-10-18T14:18:00.816Z,30.70
2018-10-18T14:20:29.971Z,33.93
2018-10-18T14:22:59.169Z,32.97
2018-10-18T14:25:28.309Z,32.50
2018-10-18T14:27:57.441Z,31.10
2018-10-18T14:30:27.122Z,31.93
2018-10-18T14:32:56.182Z,35.20
2018-10-18T14:35:25.318Z,31.00
2018-10-18T14:37:54.488Z,36.20
2018-10-18T14:40:23.565Z,32.80
2018-10-18T14:42:52.720Z,29.90
2018-10-18T14:45:21.927Z,29.77
2018-10-18T14:47:51.135Z,40.03
2018-10-18T14:50:20.346Z,29.03
2018-10-18T14:52:49.519Z,30.33
2018-10-18T14:55:18.633Z,34.43
2018-10-18T14:57:47.802Z,30.70
2018-10-18T15:00:17.042Z,26.90
2018-10-18T15:02:46.158Z,35.40
2018-10-18T15:05:15.460Z,25.53
2018-10-18T15:07:44.930Z,32.30
2018-10-18T15:10:15.247Z,31.50
2018-10-18T15:12:44.892Z,29.50
2018-10-18T15:15:14.653Z,28.00
2018-10-18T15:17:43.887Z,33.63
2018-10-18T15:20:14.149Z,24.77
2018-10-18T15:22:43.601Z,25.37
2018-10-18T15:25:13.524Z,25.37
2018-10-18T15:27:43.224Z,27.23
2018-10-18T15:30:12.802Z,27.77
2018-10-18T15:32:42.038Z,27.83
2018-10-18T15:35:12.021Z,27.47
2018-10-18T15:37:41.452Z,24.80
2018-10-18T15:40:10.670Z,28.43
2018-10-18T15:42:40.602Z,30.17
2018-10-18T15:45:10.467Z,22.00
2018-10-18T15:47:46.247Z,24.27
2018-10-18T15:50:15.433Z,30.03
2018-10-18T15:52:44.611Z,25.83
2018-10-18T15:55:13.786Z,30.80
2018-10-18T15:57:43.327Z,30.43
2018-10-18T16:00:12.742Z,30.30
2018-10-18T16:02:42.170Z,22.73
2018-10-18T16:05:11.577Z,27.57
2018-10-18T16:07:40.551Z,25.57
2018-10-18T16:10:10.894Z,24.17
2018-10-18T16:12:40.640Z,23.07
2018-10-18T16:15:11.538Z,24.87
2018-10-18T16:17:41.098Z,26.27
2018-10-18T16:20:11.633Z,27.67
2018-10-18T16:22:40.794Z,29.30
2018-10-18T16:25:11.306Z,25.80
2018-10-18T16:27:41.589Z,28.87
2018-10-18T16:30:11.618Z,25.97
2018-10-18T16:32:41.482Z,26.50
2018-10-18T16:35:10.832Z,24.07
2018-10-18T16:37:39.850Z,26.33
2018-10-18T16:40:11.877Z,24.17
2018-10-18T16:42:41.034Z,25.20
2018-10-18T16:45:12.991Z,24.23
2018-10-18T16:47:42.217Z,22.50
2018-10-18T16:50:11.995Z,24.30
2018-10-18T16:52:41.050Z,22.03
2018-10-18T16:55:10.814Z,22.93
2018-10-18T16:57:39.957Z,24.70
2018-10-18T17:00:10.524Z,24.40
2018-10-18T17:02:39.747Z,24.53
2018-10-18T17:05:09.022Z,23.57
2018-10-18T17:07:38.608Z,31.60
2018-10-18T17:10:08.032Z,24.40
2018-10-18T17:12:37.277Z,21.50
2018-10-18T17:15:07.646Z,24.50
2018-10-18T17:17:37.667Z,20.10
2018-10-18T17:20:08.015Z,23.73
2018-10-18T17:22:37.451Z,30.70
2018-10-18T17:25:08.016Z,22.53
2018-10-18T17:27:37.714Z,19.80
2018-10-18T17:30:08.119Z,28.50
2018-10-18T17:32:38.324Z,32.70
2018-10-18T17:35:07.472Z,29.70
2018-10-18T17:37:36.622Z,31.23
2018-10-18T17:40:06.445Z,27.33
2018-10-18T17:42:36.389Z,32.77
2018-10-18T17:45:06.963Z,29.00
2018-10-18T17:47:36.471Z,29.63
2018-10-18T17:50:07.436Z,30.03
2018-10-18T17:52:37.923Z,33.60
2018-10-18T17:55:08.543Z,36.47
2018-10-18T17:57:38.348Z,26.47
2018-10-18T18:00:11.493Z,32.00
2018-10-18T18:02:40.799Z,36.00
2018-10-18T18:05:11.391Z,30.37
2018-10-18T18:07:40.859Z,29.43
2018-10-18T18:10:13.821Z,28.57
2018-10-18T18:12:42.826Z,32.43
2018-10-18T18:15:12.106Z,33.20
2018-10-18T18:17:41.486Z,27.60
2018-10-18T18:20:12.067Z,32.40
2018-10-18T18:22:41.602Z,47.07
2018-10-18T18:25:11.850Z,39.27
2018-10-18T18:27:41.168Z,34.20
2018-10-18T18:30:13.357Z,35.60
2018-10-18T18:32:43.074Z,38.40
2018-10-18T18:35:12.290Z,35.23
2018-10-18T18:37:41.429Z,33.90
2018-10-18T18:40:11.194Z,33.37
2018-10-18T18:42:40.899Z,40.83
2018-10-18T18:45:15.422Z,39.23
2018-10-18T18:47:44.516Z,30.43
2018-10-18T18:50:13.711Z,39.17
2018-10-18T18:52:43.574Z,37.40
2018-10-18T18:55:12.731Z,41.00
2018-10-18T18:57:42.066Z,37.97
2018-10-18T19:00:11.584Z,33.67
2018-10-18T19:02:43.122Z,39.43
2018-10-18T19:05:12.446Z,40.80
2018-10-18T19:07:41.758Z,48.23
2018-10-18T19:10:11.334Z,34.50
2018-10-18T19:12:40.467Z,38.77
2018-10-18T19:15:09.952Z,41.77
2018-10-18T19:17:40.372Z,34.77
2018-10-18T19:20:10.382Z,31.23
2018-10-18T19:22:39.565Z,38.13
2018-10-18T19:25:09.170Z,36.13
2018-10-18T19:27:38.923Z,35.57
2018-10-18T19:30:14.889Z,38.00
2018-10-18T19:32:44.601Z,34.07
2018-10-18T19:35:13.853Z,39.60
2018-10-18T19:37:43.066Z,33.33
2018-10-18T19:40:12.301Z,37.70
2018-10-18T19:42:41.466Z,44.40
2018-10-18T19:45:10.858Z,39.40
2018-10-18T19:47:40.489Z,36.97
2018-10-18T19:50:09.966Z,39.40
2018-10-18T19:52:39.198Z,37.03
2018-10-18T19:55:08.847Z,35.40
2018-10-18T19:57:38.087Z,44.67
2018-10-18T20:00:08.815Z,39.20
2018-10-18T20:02:38.954Z,45.80
2018-10-18T20:05:08.562Z,37.30
2018-10-18T20:07:37.877Z,41.93
2018-10-18T20:10:07.582Z,41.73
2018-10-18T20:12:36.839Z,44.80
2018-10-18T20:15:07.937Z,47.30
2018-10-18T20:17:37.503Z,37.53
2018-10-18T20:20:09.281Z,37.43
2018-10-18T20:22:39.131Z,39.70
2018-10-18T20:25:09.152Z,37.47
2018-10-18T20:27:38.792Z,39.60
2018-10-18T20:30:12.313Z,40.50
2018-10-18T20:32:42.098Z,46.10
2018-10-18T20:35:12.182Z,45.03
2018-10-18T20:37:42.090Z,41.83
2018-10-18T20:40:13.854Z,45.63
2018-10-18T20:42:43.539Z,38.77
2018-10-18T20:45:19.183Z,46.23
2018-10-18T20:47:48.906Z,39.17
2018-10-18T20:50:18.106Z,49.27
2018-10-18T20:52:48.344Z,48.43
2018-10-18T20:55:17.525Z,46.77
2018-10-18T20:57:46.686Z,37.30
2018-10-18T21:00:15.918Z,50.00
2018-10-18T21:02:46.203Z,43.13
2018-10-18T21:05:15.171Z,47.23
2018-10-18T21:07:44.742Z,49.00
2018-10-18T21:10:15.231Z,52.07
2018-10-18T21:12:44.547Z,48.83
2018-10-18T21:15:15.346Z,46.97
2018-10-18T21:17:45.203Z,40.20
2018-10-18T21:20:14.323Z,49.13
2018-10-18T21:22:43.623Z,49.97
2018-10-18T21:25:12.758Z,44.57
2018-10-18T21:27:42.442Z,41.30
2018-10-18T21:30:11.552Z,46.83
2018-10-18T21:32:41.447Z,46.77
2018-10-18T21:35:10.647Z,41.97
2018-10-18T21:37:40.452Z,48.20
2018-10-18T21:40:09.279Z,45.37
2018-10-18T21:42:38.534Z,48.07
2018-10-18T21:45:07.721Z,50.67
2018-10-18T21:47:36.906Z,47.90
2018-10-18T21:50:06.758Z,49.07
2018-10-18T21:52:35.888Z,48.13
2018-10-18T21:55:05.452Z,51.10
2018-10-18T21:57:34.577Z,53.37
2018-10-18T22:00:03.785Z,55.03
2018-10-18T22:02:33.026Z,49.63
2018-10-18T22:05:02.214Z,57.27
2018-10-18T22:07:31.312Z,53.97
2018-10-18T22:10:01.157Z,58.00
2018-10-18T22:12:30.986Z,47.90
2018-10-18T22:15:00.727Z,43.10
2018-10-18T22:17:29.891Z,53.20
2018-10-18T22:19:59.138Z,47.17
2018-10-18T22:22:27.974Z,50.17
2018-10-18T22:24:57.086Z,52.27
2018-10-18T22:27:26.220Z,56.67
2018-10-18T22:29:55.992Z,54.30
2018-10-18T22:32:25.155Z,45.63
2018-10-18T22:34:54.608Z,55.70
2018-10-18T22:37:23.750Z,61.20
2018-10-18T22:39:52.974Z,65.20
2018-10-18T22:42:22.167Z,53.17
2018-10-18T22:44:51.744Z,47.90
2018-10-18T22:47:20.856Z,50.67
2018-10-18T22:49:49.996Z,61.60
2018-10-18T22:52:19.143Z,63.63
2018-10-18T22:54:49.191Z,65.20
2018-10-18T22:57:18.432Z,57.40
2018-10-18T22:59:47.950Z,57.27
2018-10-18T23:02:17.388Z,60.63
2018-10-18T23:04:46.622Z,56.60
2018-10-18T23:07:15.871Z,49.23
2018-10-18T23:09:45.018Z,52.63
2018-10-18T23:12:14.273Z,55.17
2018-10-18T23:14:43.493Z,59.80
2018-10-18T23:17:12.687Z,58.13
2018-10-18T23:19:41.782Z,54.97
2018-10-18T23:22:10.939Z,52.50
2018-10-18T23:24:40.346Z,53.57
2018-10-18T23:27:09.670Z,49.30
2018-10-18T23:29:39.782Z,57.07
2018-10-18T23:32:09.774Z,53.90
2018-10-18T23:34:38.930Z,69.27
2018-10-18T23:37:08.071Z,64.67
2018-10-18T23:39:37.578Z,53.60
2018-10-18T23:42:06.757Z,63.47
2018-10-18T23:44:35.925Z,66.90
2018-10-18T23:47:05.926Z,62.87
2018-10-18T23:49:35.630Z,64.40
2018-10-18T23:52:05.130Z,70.07
2018-10-18T23:54:34.838Z,73.77
2018-10-18T23:57:04.059Z,63.40
2018-10-18T23:59:33.195Z,67.80
